createdAt,value
2017-06-13T00:00:01.582Z,0
2017-06-13T00:00:42.114Z,0
2017-06-13T00:01:22.674Z,0
2017-06-13T00:02:03.186Z,0
2017-06-13T00:02:43.723Z,0
2017-06-13T00:03:24.265Z,0
2017-06-13T00:04:04.804Z,0
2017-06-13T00:04:45.346Z,0
2017-06-13T00:05:25.882Z,0
2017-06-13T00:06:06.424Z,0
2017-06-13T00:06:46.972Z,0
2017-06-13T00:07:27.514Z,0
2017-06-13T00:08:08.048Z,0
2017-06-13T00:08:48.594Z,0
2017-06-13T00:09:29.135Z,0
2017-06-13T00:10:09.679Z,0
2017-06-13T00:10:50.210Z,0
2017-06-13T00:11:30.750Z,0
2017-06-13T00:12:11.290Z,0
2017-06-13T00:12:51.826Z,0
2017-06-13T00:13:32.358Z,0
2017-06-13T00:14:12.897Z,0
2017-06-13T00:14:53.429Z,0
2017-06-13T00:15:33.971Z,0
2017-06-13T00:16:14.499Z,0
2017-06-13T00:16:55.042Z,0
2017-06-13T00:17:35.581Z,0
2017-06-13T00:18:16.118Z,0
2017-06-13T00:18:56.660Z,0
2017-06-13T00:19:37.208Z,0
2017-06-13T00:20:17.740Z,0
2017-06-13T00:20:58.274Z,0
2017-06-13T00:21:38.814Z,0
2017-06-13T00:22:19.372Z,0
2017-06-13T00:22:59.918Z,0
2017-06-13T00:23:40.504Z,0
2017-06-13T00:24:21.023Z,0
2017-06-13T00:25:01.565Z,0
2017-06-13T00:25:42.105Z,0
2017-06-13T00:26:22.646Z,0
2017-06-13T00:27:03.168Z,0
2017-06-13T00:27:43.711Z,0
2017-06-13T00:28:24.269Z,0
2017-06-13T00:29:04.812Z,0
2017-06-13T00:29:45.358Z,0
2017-06-13T00:30:25.883Z,0
2017-06-13T00:31:06.437Z,0
2017-06-13T00:31:46.981Z,0
2017-06-13T00:32:27.548Z,0
2017-06-13T00:33:08.099Z,0
2017-06-13T00:33:48.647Z,0
2017-06-13T00:34:29.183Z,0
2017-06-13T00:35:09.728Z,0
2017-06-13T00:35:50.262Z,0
2017-06-13T00:36:30.801Z,0
2017-06-13T00:37:11.338Z,0
2017-06-13T00:37:51.870Z,0
2017-06-13T00:38:32.413Z,0
2017-06-13T00:39:12.953Z,0
2017-06-13T00:39:53.502Z,0
2017-06-13T00:40:34.037Z,0
2017-06-13T00:41:14.581Z,0
2017-06-13T00:41:55.132Z,0
2017-06-13T00:42:35.675Z,0
2017-06-13T00:43:16.223Z,0
2017-06-13T00:43:56.738Z,0
2017-06-13T00:44:37.277Z,0
2017-06-13T00:45:17.820Z,0
2017-06-13T00:45:58.358Z,0
2017-06-13T00:46:38.898Z,0
2017-06-13T00:47:19.448Z,0
2017-06-13T00:47:59.975Z,0
2017-06-13T00:48:40.517Z,0
2017-06-13T00:49:21.058Z,0
2017-06-13T00:50:01.592Z,0
2017-06-13T00:50:42.134Z,0
2017-06-13T00:51:22.679Z,0
2017-06-13T00:52:03.220Z,0
2017-06-13T00:52:43.766Z,0
2017-06-13T00:53:24.311Z,0
2017-06-13T00:54:04.852Z,0
2017-06-13T00:54:45.400Z,0
2017-06-13T00:55:25.935Z,0
2017-06-13T00:56:06.482Z,0
2017-06-13T00:56:47.009Z,0
2017-06-13T00:57:27.555Z,0
2017-06-13T00:58:08.094Z,0
2017-06-13T00:58:48.633Z,0
2017-06-13T00:59:29.173Z,0
2017-06-13T01:00:09.713Z,0
2017-06-13T01:00:50.261Z,0
2017-06-13T01:01:30.802Z,0
2017-06-13T01:02:11.333Z,0
2017-06-13T01:02:51.875Z,0
2017-06-13T01:03:32.412Z,0
2017-06-13T01:04:12.947Z,0
2017-06-13T01:04:53.511Z,0
2017-06-13T01:05:34.070Z,0
2017-06-13T01:06:14.608Z,0
2017-06-13T01:06:55.152Z,0
2017-06-13T01:07:35.692Z,0
2017-06-13T01:08:16.242Z,0
2017-06-13T01:08:56.781Z,0
2017-06-13T01:09:37.320Z,0
2017-06-13T01:10:17.855Z,0
2017-06-13T01:10:58.398Z,0
2017-06-13T01:11:38.952Z,0
2017-06-13T01:12:19.500Z,0
2017-06-13T01:13:00.040Z,0
2017-06-13T01:13:40.621Z,0
2017-06-13T01:14:21.171Z,0
2017-06-13T01:15:01.719Z,0
2017-06-13T01:15:42.244Z,0
2017-06-13T01:16:22.804Z,0
2017-06-13T01:17:03.329Z,0
2017-06-13T01:17:43.868Z,0
2017-06-13T01:18:24.407Z,0
2017-06-13T01:19:04.941Z,0
2017-06-13T01:19:45.494Z,0
2017-06-13T01:20:26.030Z,0
2017-06-13T01:21:06.573Z,0
2017-06-13T01:21:49.725Z,0
2017-06-13T01:22:30.262Z,0
2017-06-13T01:23:10.809Z,0
2017-06-13T01:23:51.377Z,0
2017-06-13T01:24:31.923Z,0
2017-06-13T01:25:12.459Z,0
2017-06-13T01:25:52.998Z,0
2017-06-13T01:26:33.531Z,0
2017-06-13T01:27:14.077Z,0
2017-06-13T01:27:54.617Z,0
2017-06-13T01:28:35.158Z,0
2017-06-13T01:29:15.730Z,0
2017-06-13T01:29:56.274Z,0
2017-06-13T01:30:36.814Z,0
2017-06-13T01:31:17.361Z,0
2017-06-13T01:31:57.903Z,0
2017-06-13T01:32:38.443Z,0
2017-06-13T01:33:18.990Z,0
2017-06-13T01:33:59.538Z,0
2017-06-13T01:34:40.081Z,0
2017-06-13T01:35:20.617Z,0
2017-06-13T01:36:01.162Z,0
2017-06-13T01:36:41.706Z,0
2017-06-13T01:37:22.245Z,0
2017-06-13T01:38:02.793Z,0
2017-06-13T01:38:43.333Z,0
2017-06-13T01:39:23.876Z,0
2017-06-13T01:40:04.418Z,0
2017-06-13T01:40:44.960Z,0
2017-06-13T01:41:25.499Z,0
2017-06-13T01:42:06.039Z,0
2017-06-13T01:42:46.584Z,0
2017-06-13T01:43:27.143Z,0
2017-06-13T01:44:07.684Z,0
2017-06-13T01:44:48.223Z,0
2017-06-13T01:45:28.767Z,0
2017-06-13T01:46:09.306Z,0
2017-06-13T01:46:49.850Z,0
2017-06-13T01:47:30.393Z,0
2017-06-13T01:48:10.937Z,0
2017-06-13T01:48:51.477Z,0
2017-06-13T01:49:32.015Z,0
2017-06-13T01:50:12.567Z,0
2017-06-13T01:50:53.110Z,0
2017-06-13T01:51:33.652Z,0
2017-06-13T01:52:14.195Z,0
2017-06-13T01:52:54.743Z,0
2017-06-13T01:53:35.293Z,0
2017-06-13T01:54:15.831Z,0
2017-06-13T01:54:56.378Z,0
2017-06-13T01:55:36.913Z,0
2017-06-13T01:56:17.457Z,0
2017-06-13T01:56:57.979Z,0
2017-06-13T01:57:38.565Z,0
2017-06-13T01:58:19.112Z,0
2017-06-13T01:58:59.654Z,0
2017-06-13T01:59:40.197Z,0
2017-06-13T02:00:20.734Z,0
2017-06-13T02:01:01.271Z,0
2017-06-13T02:01:41.802Z,0
2017-06-13T02:02:22.341Z,0
2017-06-13T02:03:02.882Z,0
2017-06-13T02:03:43.425Z,0
2017-06-13T02:04:23.954Z,0
2017-06-13T02:05:04.492Z,0
2017-06-13T02:05:45.033Z,0
2017-06-13T02:06:25.577Z,0
2017-06-13T02:07:06.114Z,0
2017-06-13T02:07:46.658Z,0
2017-06-13T02:08:27.197Z,0
2017-06-13T02:09:07.739Z,0
2017-06-13T02:09:48.281Z,0
2017-06-13T02:10:28.824Z,0
2017-06-13T02:11:09.359Z,0
2017-06-13T02:11:49.907Z,0
2017-06-13T02:12:30.446Z,0
2017-06-13T02:13:10.976Z,0
2017-06-13T02:13:51.518Z,0
2017-06-13T02:14:32.062Z,0
2017-06-13T02:15:12.618Z,0
2017-06-13T02:15:53.165Z,0
2017-06-13T02:16:33.700Z,0
2017-06-13T02:17:14.246Z,0
2017-06-13T02:17:54.893Z,0
2017-06-13T02:18:35.435Z,0
2017-06-13T02:19:15.986Z,0
2017-06-13T02:19:56.522Z,0
2017-06-13T02:20:37.060Z,0
2017-06-13T02:21:17.603Z,0
2017-06-13T02:21:58.145Z,0
2017-06-13T02:22:38.688Z,0
2017-06-13T02:23:19.229Z,0
2017-06-13T02:23:59.771Z,0
2017-06-13T02:24:40.312Z,0
2017-06-13T02:25:20.899Z,0
2017-06-13T02:26:01.432Z,0
2017-06-13T02:26:41.976Z,0
2017-06-13T02:27:22.515Z,0
2017-06-13T02:28:03.053Z,0
2017-06-13T02:28:43.599Z,0
2017-06-13T02:29:24.146Z,0
2017-06-13T02:30:04.697Z,0
2017-06-13T02:30:45.230Z,0
2017-06-13T02:31:25.779Z,0
2017-06-13T02:32:06.310Z,0
2017-06-13T02:32:46.858Z,0
2017-06-13T02:33:27.399Z,0
2017-06-13T02:34:07.941Z,0
2017-06-13T02:34:48.485Z,0
2017-06-13T02:35:29.023Z,0
2017-06-13T02:36:09.566Z,0
2017-06-13T02:36:50.103Z,0
2017-06-13T02:37:30.643Z,0
2017-06-13T02:38:11.185Z,0
2017-06-13T02:38:51.716Z,0
2017-06-13T02:39:32.251Z,0
2017-06-13T02:40:12.792Z,0
2017-06-13T02:40:53.337Z,0
2017-06-13T02:41:33.875Z,0
2017-06-13T02:42:14.421Z,0
2017-06-13T02:42:55.017Z,0
2017-06-13T02:43:35.560Z,0
2017-06-13T02:44:16.095Z,0
2017-06-13T02:44:56.643Z,0
2017-06-13T02:45:37.185Z,0
2017-06-13T02:46:17.734Z,0
2017-06-13T02:46:58.268Z,0
2017-06-13T02:47:38.831Z,0
2017-06-13T02:48:19.369Z,0
2017-06-13T02:48:59.920Z,0
2017-06-13T02:49:40.471Z,0
2017-06-13T02:50:21.023Z,0
2017-06-13T02:51:01.570Z,0
2017-06-13T02:51:42.104Z,0
2017-06-13T02:52:22.649Z,0
2017-06-13T02:53:03.192Z,0
2017-06-13T02:53:43.734Z,0
2017-06-13T02:54:24.278Z,0
2017-06-13T02:55:04.822Z,0
2017-06-13T02:55:45.374Z,0
2017-06-13T02:56:25.919Z,0
2017-06-13T02:57:06.460Z,0
2017-06-13T02:57:47.000Z,0
2017-06-13T02:58:27.550Z,0
2017-06-13T02:59:08.095Z,0
2017-06-13T02:59:48.628Z,0
2017-06-13T03:00:29.179Z,0
2017-06-13T03:01:09.719Z,0
2017-06-13T03:01:50.265Z,0
2017-06-13T03:02:30.810Z,0
2017-06-13T03:03:11.348Z,0
2017-06-13T03:03:51.884Z,0
2017-06-13T03:04:32.426Z,0
2017-06-13T03:05:12.967Z,0
2017-06-13T03:05:53.506Z,0
2017-06-13T03:06:34.043Z,0
2017-06-13T03:07:14.587Z,0
2017-06-13T03:07:55.140Z,0
2017-06-13T03:08:35.680Z,0
2017-06-13T03:09:16.220Z,0
2017-06-13T03:09:56.753Z,0
2017-06-13T03:10:37.286Z,0
2017-06-13T03:11:17.826Z,0
2017-06-13T03:11:58.397Z,0
2017-06-13T03:12:38.943Z,0
2017-06-13T03:13:19.483Z,0
2017-06-13T03:14:00.034Z,0
2017-06-13T03:14:40.585Z,0
2017-06-13T03:15:21.132Z,0
2017-06-13T03:16:01.670Z,0
2017-06-13T03:16:42.219Z,5
2017-06-13T03:17:22.767Z,5
2017-06-13T03:18:03.311Z,5
2017-06-13T03:18:43.850Z,5
2017-06-13T03:19:24.394Z,5
2017-06-13T03:20:04.939Z,5
2017-06-13T03:20:45.488Z,5
2017-06-13T03:21:26.012Z,5
2017-06-13T03:22:06.544Z,5
2017-06-13T03:22:47.076Z,5
2017-06-13T03:23:27.625Z,5
2017-06-13T03:24:08.165Z,5
2017-06-13T03:24:48.707Z,5
2017-06-13T03:25:29.247Z,5
2017-06-13T03:26:09.776Z,5
2017-06-13T03:26:50.312Z,5
2017-06-13T03:27:30.853Z,10
2017-06-13T03:28:11.397Z,10
2017-06-13T03:28:51.936Z,10
2017-06-13T03:29:32.481Z,10
2017-06-13T03:30:13.027Z,10
2017-06-13T03:30:53.574Z,10
2017-06-13T03:31:34.112Z,10
2017-06-13T03:32:14.656Z,10
2017-06-13T03:32:55.200Z,10
2017-06-13T03:33:35.734Z,10
2017-06-13T03:34:16.273Z,10
2017-06-13T03:34:56.800Z,10
2017-06-13T03:35:37.342Z,15
2017-06-13T03:36:17.879Z,15
2017-06-13T03:36:58.423Z,15
2017-06-13T03:37:38.967Z,15
2017-06-13T03:38:19.499Z,15
2017-06-13T03:39:00.033Z,15
2017-06-13T03:39:40.576Z,15
2017-06-13T03:40:21.128Z,15
2017-06-13T03:41:01.659Z,15
2017-06-13T03:41:42.174Z,15
2017-06-13T03:42:22.722Z,20
2017-06-13T03:43:03.263Z,20
2017-06-13T03:43:43.804Z,20
2017-06-13T03:44:24.392Z,20
2017-06-13T03:45:04.937Z,20
2017-06-13T03:45:45.482Z,20
2017-06-13T03:46:26.027Z,20
2017-06-13T03:47:06.557Z,20
2017-06-13T03:47:47.094Z,20
2017-06-13T03:48:27.635Z,20
2017-06-13T03:49:08.175Z,25
2017-06-13T03:49:50.360Z,25
2017-06-13T03:50:32.756Z,25
2017-06-13T03:51:15.777Z,25
2017-06-13T03:51:58.294Z,25
2017-06-13T03:52:41.283Z,25
2017-06-13T03:53:24.252Z,25
2017-06-13T03:54:06.752Z,25
2017-06-13T03:54:48.538Z,25
2017-06-13T03:55:31.332Z,30
2017-06-13T03:56:13.484Z,30
2017-06-13T03:58:36.710Z,30
2017-06-13T03:59:19.212Z,30
2017-06-13T03:59:59.754Z,30
2017-06-13T04:00:40.317Z,30
2017-06-13T04:01:20.841Z,30
2017-06-13T04:02:01.381Z,30
2017-06-13T04:02:41.998Z,35
2017-06-13T04:03:22.568Z,35
2017-06-13T04:04:03.110Z,35
2017-06-13T04:04:43.622Z,35
2017-06-13T04:05:24.165Z,35
2017-06-13T04:06:04.705Z,35
2017-06-13T04:06:45.239Z,35
2017-06-13T04:07:25.797Z,35
2017-06-13T04:08:06.321Z,35
2017-06-13T04:08:46.857Z,40
2017-06-13T04:09:27.469Z,40
2017-06-13T04:10:07.986Z,40
2017-06-13T04:10:48.523Z,40
2017-06-13T04:11:29.075Z,40
2017-06-13T04:12:09.614Z,40
2017-06-13T04:12:50.143Z,40
2017-06-13T04:13:30.678Z,40
2017-06-13T04:14:11.217Z,40
2017-06-13T04:14:51.758Z,40
2017-06-13T04:15:32.297Z,45
2017-06-13T04:16:12.838Z,45
2017-06-13T04:16:53.378Z,45
2017-06-13T04:17:33.909Z,45
2017-06-13T04:18:14.442Z,45
2017-06-13T04:18:54.987Z,45
2017-06-13T04:19:35.752Z,45
2017-06-13T04:20:16.293Z,45
2017-06-13T04:20:56.834Z,45
2017-06-13T04:21:37.372Z,50
2017-06-13T04:22:17.914Z,50
2017-06-13T04:22:58.452Z,50
2017-06-13T04:23:38.988Z,50
2017-06-13T04:24:19.525Z,50
2017-06-13T04:25:00.061Z,50
2017-06-13T04:25:40.591Z,50
2017-06-13T04:26:21.136Z,50
2017-06-13T04:27:01.667Z,50
2017-06-13T04:27:42.225Z,50
2017-06-13T04:28:22.740Z,55
2017-06-13T04:29:03.272Z,55
2017-06-13T04:29:43.811Z,55
2017-06-13T04:30:24.351Z,55
2017-06-13T04:31:04.890Z,55
2017-06-13T04:31:45.428Z,55
2017-06-13T04:32:25.966Z,55
2017-06-13T04:33:06.518Z,55
2017-06-13T04:33:47.058Z,55
2017-06-13T04:34:27.597Z,55
2017-06-13T04:35:08.141Z,55
2017-06-13T04:35:48.675Z,60
2017-06-13T04:36:29.207Z,60
2017-06-13T04:37:09.745Z,60
2017-06-13T04:37:50.286Z,60
2017-06-13T04:38:30.813Z,60
2017-06-13T04:39:11.350Z,60
2017-06-13T04:39:51.891Z,60
2017-06-13T04:40:32.437Z,60
2017-06-13T04:41:12.978Z,60
2017-06-13T04:41:53.540Z,60
2017-06-13T04:42:34.084Z,65
2017-06-13T04:43:14.639Z,65
2017-06-13T04:43:55.163Z,65
2017-06-13T04:44:35.714Z,65
2017-06-13T04:45:16.258Z,65
2017-06-13T04:45:56.787Z,65
2017-06-13T04:46:37.328Z,65
2017-06-13T04:47:17.868Z,65
2017-06-13T04:47:58.409Z,65
2017-06-13T04:48:38.947Z,70
2017-06-13T04:49:19.484Z,70
2017-06-13T04:50:00.016Z,70
2017-06-13T04:50:40.562Z,70
2017-06-13T04:51:21.085Z,70
2017-06-13T04:52:01.634Z,70
2017-06-13T04:52:42.165Z,70
2017-06-13T04:53:22.700Z,75
2017-06-13T04:54:03.234Z,75
2017-06-13T04:54:43.772Z,75
2017-06-13T04:55:24.317Z,75
2017-06-13T04:56:04.841Z,75
2017-06-13T04:56:45.348Z,75
2017-06-13T04:57:25.879Z,75
2017-06-13T04:58:06.395Z,75
2017-06-13T04:58:46.941Z,75
2017-06-13T04:59:27.483Z,75
2017-06-13T05:00:08.020Z,75
2017-06-13T05:00:48.563Z,75
2017-06-13T05:01:29.092Z,75
2017-06-13T05:02:09.630Z,75
2017-06-13T05:02:50.163Z,75
2017-06-13T05:03:30.706Z,80
2017-06-13T05:04:11.248Z,80
2017-06-13T05:04:51.796Z,80
2017-06-13T05:05:32.385Z,80
2017-06-13T05:06:12.928Z,80
2017-06-13T05:06:53.469Z,80
2017-06-13T05:07:34.016Z,80
2017-06-13T05:08:14.550Z,80
2017-06-13T05:08:55.091Z,80
2017-06-13T05:09:35.616Z,80
2017-06-13T05:10:16.152Z,80
2017-06-13T05:10:56.691Z,85
2017-06-13T05:11:37.227Z,85
2017-06-13T05:12:17.760Z,85
2017-06-13T05:12:58.308Z,85
2017-06-13T05:13:38.850Z,85
2017-06-13T05:14:19.397Z,85
2017-06-13T05:14:59.939Z,85
2017-06-13T05:15:40.501Z,85
2017-06-13T05:16:21.025Z,85
2017-06-13T05:17:01.558Z,85
2017-06-13T05:17:42.098Z,85
2017-06-13T05:18:22.638Z,90
2017-06-13T05:19:03.176Z,90
2017-06-13T05:19:43.769Z,90
2017-06-13T05:20:24.303Z,90
2017-06-13T05:21:04.823Z,90
2017-06-13T05:21:45.356Z,90
2017-06-13T05:22:25.914Z,90
2017-06-13T05:23:06.452Z,90
2017-06-13T05:23:46.995Z,90
2017-06-13T05:24:27.566Z,90
2017-06-13T05:25:08.116Z,95
2017-06-13T05:25:48.656Z,95
2017-06-13T05:26:29.177Z,100
2017-06-13T05:27:09.716Z,100
2017-06-13T05:27:50.245Z,105
2017-06-13T05:28:30.774Z,105
2017-06-13T05:29:11.313Z,105
2017-06-13T05:29:51.858Z,105
2017-06-13T05:30:32.418Z,105
2017-06-13T05:31:12.965Z,105
2017-06-13T05:31:53.516Z,110
2017-06-13T05:32:34.057Z,110
2017-06-13T05:33:14.611Z,115
2017-06-13T05:33:55.166Z,120
2017-06-13T05:34:35.712Z,120
2017-06-13T05:35:16.247Z,120
2017-06-13T05:35:56.780Z,120
2017-06-13T05:36:37.316Z,125
2017-06-13T05:37:17.852Z,125
2017-06-13T05:37:58.392Z,125
2017-06-13T05:38:38.924Z,125
2017-06-13T05:39:19.472Z,130
2017-06-13T05:40:00.010Z,130
2017-06-13T05:40:40.536Z,130
2017-06-13T05:41:21.065Z,130
2017-06-13T05:42:01.595Z,130
2017-06-13T05:42:42.134Z,130
2017-06-13T05:43:22.675Z,130
2017-06-13T05:44:03.213Z,135
2017-06-13T05:44:43.717Z,135
2017-06-13T05:45:24.260Z,135
2017-06-13T05:46:04.820Z,140
2017-06-13T05:46:45.362Z,140
2017-06-13T05:47:25.920Z,145
2017-06-13T05:48:06.440Z,145
2017-06-13T05:48:46.979Z,145
2017-06-13T05:49:27.520Z,145
2017-06-13T05:50:08.041Z,145
2017-06-13T05:50:48.571Z,145
2017-06-13T05:51:29.097Z,150
2017-06-13T05:52:09.642Z,150
2017-06-13T05:52:50.188Z,155
2017-06-13T05:53:30.726Z,155
2017-06-13T05:54:11.252Z,155
2017-06-13T05:54:51.864Z,160
2017-06-13T05:55:32.627Z,160
2017-06-13T05:56:13.191Z,165
2017-06-13T05:56:53.723Z,165
2017-06-13T05:57:34.265Z,160
2017-06-13T05:58:14.806Z,145
2017-06-13T05:58:55.343Z,145
2017-06-13T05:59:35.888Z,155
2017-06-13T06:00:16.438Z,165
2017-06-13T06:00:56.960Z,170
2017-06-13T06:01:37.498Z,175
2017-06-13T06:02:18.044Z,185
2017-06-13T06:02:58.583Z,205
2017-06-13T06:03:39.112Z,230
2017-06-13T06:04:19.662Z,245
2017-06-13T06:05:00.214Z,245
2017-06-13T06:05:40.744Z,250
2017-06-13T06:06:21.278Z,260
2017-06-13T06:07:01.812Z,255
2017-06-13T06:07:42.420Z,260
2017-06-13T06:08:22.988Z,260
2017-06-13T06:09:03.509Z,260
2017-06-13T06:09:44.054Z,240
2017-06-13T06:10:24.571Z,235
2017-06-13T06:11:05.118Z,235
2017-06-13T06:11:45.655Z,245
2017-06-13T06:12:26.207Z,235
2017-06-13T06:13:06.737Z,240
2017-06-13T06:13:47.274Z,220
2017-06-13T06:14:27.880Z,220
2017-06-13T06:15:08.403Z,215
2017-06-13T06:15:48.934Z,230
2017-06-13T06:16:29.493Z,265
2017-06-13T06:17:10.018Z,255
2017-06-13T06:17:50.605Z,300
2017-06-13T06:18:31.137Z,325
2017-06-13T06:19:11.684Z,325
2017-06-13T06:19:52.229Z,325
2017-06-13T06:20:32.776Z,325
2017-06-13T06:21:13.320Z,310
2017-06-13T06:21:53.871Z,285
2017-06-13T06:22:34.412Z,260
2017-06-13T06:23:14.960Z,255
2017-06-13T06:23:55.504Z,215
2017-06-13T06:24:36.044Z,210
2017-06-13T06:25:16.579Z,210
2017-06-13T06:25:57.130Z,230
2017-06-13T06:26:37.673Z,225
2017-06-13T06:27:18.213Z,225
2017-06-13T06:27:58.753Z,225
2017-06-13T06:28:39.314Z,215
2017-06-13T06:29:19.853Z,215
2017-06-13T06:30:00.385Z,205
2017-06-13T06:30:40.924Z,205
2017-06-13T06:31:21.457Z,225
2017-06-13T06:32:01.991Z,250
2017-06-13T06:32:42.527Z,270
2017-06-13T06:33:23.068Z,270
2017-06-13T06:34:03.601Z,285
2017-06-13T06:34:44.142Z,320
2017-06-13T06:35:24.686Z,320
2017-06-13T06:36:05.232Z,335
2017-06-13T06:36:45.784Z,320
2017-06-13T06:37:26.325Z,320
2017-06-13T06:38:06.859Z,320
2017-06-13T06:38:47.397Z,315
2017-06-13T06:39:27.931Z,305
2017-06-13T06:40:08.472Z,325
2017-06-13T06:40:49.010Z,320
2017-06-13T06:41:29.590Z,295
2017-06-13T06:42:10.100Z,280
2017-06-13T06:42:50.650Z,280
2017-06-13T06:43:31.196Z,280
2017-06-13T06:44:11.746Z,310
2017-06-13T06:44:52.289Z,305
2017-06-13T06:45:32.832Z,280
2017-06-13T06:46:13.362Z,270
2017-06-13T06:46:53.903Z,285
2017-06-13T06:47:34.442Z,265
2017-06-13T06:48:14.995Z,270
2017-06-13T06:48:55.541Z,255
2017-06-13T06:49:36.084Z,255
2017-06-13T06:50:16.625Z,270
2017-06-13T06:50:57.172Z,270
2017-06-13T06:51:37.714Z,275
2017-06-13T06:52:18.261Z,265
2017-06-13T06:52:58.804Z,265
2017-06-13T06:53:39.347Z,255
2017-06-13T06:54:19.893Z,255
2017-06-13T06:55:00.419Z,240
2017-06-13T06:55:40.956Z,220
2017-06-13T06:56:21.494Z,210
2017-06-13T06:57:02.035Z,200
2017-06-13T06:57:42.565Z,200
2017-06-13T06:58:23.104Z,190
2017-06-13T06:59:03.646Z,210
2017-06-13T06:59:44.187Z,210
2017-06-13T07:00:24.726Z,205
2017-06-13T07:01:05.263Z,235
2017-06-13T07:01:45.805Z,245
2017-06-13T07:02:26.346Z,250
2017-06-13T07:03:06.891Z,230
2017-06-13T07:03:47.436Z,225
2017-06-13T07:04:27.973Z,225
2017-06-13T07:05:08.537Z,225
2017-06-13T07:05:49.087Z,240
2017-06-13T07:06:29.632Z,250
2017-06-13T07:07:10.175Z,255
2017-06-13T07:07:50.720Z,260
2017-06-13T07:08:31.264Z,260
2017-06-13T07:09:11.808Z,265
2017-06-13T07:09:52.356Z,275
2017-06-13T07:10:32.896Z,280
2017-06-13T07:11:13.435Z,285
2017-06-13T07:11:53.969Z,290
2017-06-13T07:12:34.510Z,285
2017-06-13T07:13:15.055Z,265
2017-06-13T07:13:55.600Z,275
2017-06-13T07:14:36.150Z,280
2017-06-13T07:15:16.686Z,285
2017-06-13T07:15:57.245Z,240
2017-06-13T07:16:37.790Z,285
2017-06-13T07:17:18.394Z,275
2017-06-13T07:17:58.922Z,245
2017-06-13T07:18:39.465Z,245
2017-06-13T07:19:20.009Z,240
2017-06-13T07:20:00.558Z,235
2017-06-13T07:20:41.104Z,250
2017-06-13T07:21:21.643Z,245
2017-06-13T07:22:02.189Z,245
2017-06-13T07:22:42.739Z,235
2017-06-13T07:23:23.284Z,220
2017-06-13T07:24:03.824Z,240
2017-06-13T07:24:44.365Z,245
2017-06-13T07:25:24.901Z,250
2017-06-13T07:26:05.440Z,250
2017-06-13T07:26:45.983Z,320
2017-06-13T07:27:26.523Z,350
2017-06-13T07:28:07.071Z,325
2017-06-13T07:28:47.619Z,300
2017-06-13T07:29:28.169Z,345
2017-06-13T07:30:08.719Z,340
2017-06-13T07:30:49.254Z,340
2017-06-13T07:31:29.788Z,330
2017-06-13T07:32:10.339Z,330
2017-06-13T07:32:50.889Z,320
2017-06-13T07:33:31.426Z,300
2017-06-13T07:34:11.963Z,295
2017-06-13T07:34:52.502Z,295
2017-06-13T07:35:33.045Z,300
2017-06-13T07:36:13.590Z,310
2017-06-13T07:36:54.127Z,335
2017-06-13T07:37:34.671Z,360
2017-06-13T07:38:15.216Z,380
2017-06-13T07:38:55.763Z,430
2017-06-13T07:39:36.297Z,500
2017-06-13T07:40:16.844Z,530
2017-06-13T07:40:57.384Z,575
2017-06-13T07:41:37.920Z,1630
2017-06-13T07:42:18.447Z,2085
2017-06-13T07:42:58.999Z,2350
2017-06-13T07:43:39.552Z,2370
2017-06-13T07:44:20.111Z,2360
2017-06-13T07:45:00.651Z,2445
2017-06-13T07:45:41.198Z,380
2017-06-13T07:46:21.745Z,260
2017-06-13T07:47:02.294Z,225
2017-06-13T07:47:42.840Z,205
2017-06-13T07:48:23.389Z,195
2017-06-13T07:49:03.938Z,200
2017-06-13T07:49:44.490Z,210
2017-06-13T07:50:25.040Z,205
2017-06-13T07:51:05.592Z,205
2017-06-13T07:51:46.129Z,225
2017-06-13T07:52:26.666Z,255
2017-06-13T07:53:07.212Z,255
2017-06-13T07:53:47.754Z,265
2017-06-13T07:54:28.305Z,290
2017-06-13T07:55:08.850Z,325
2017-06-13T07:55:49.398Z,365
2017-06-13T07:56:29.946Z,365
2017-06-13T07:57:10.488Z,350
2017-06-13T07:57:51.033Z,340
2017-06-13T07:58:31.567Z,365
2017-06-13T07:59:12.122Z,375
2017-06-13T07:59:52.666Z,380
2017-06-13T08:00:33.205Z,380
2017-06-13T08:01:13.764Z,420
2017-06-13T08:01:54.284Z,415
2017-06-13T08:02:34.826Z,300
2017-06-13T08:03:15.367Z,310
2017-06-13T08:03:55.909Z,305
2017-06-13T08:04:36.455Z,330
2017-06-13T08:05:16.994Z,375
2017-06-13T08:05:57.524Z,410
2017-06-13T08:06:38.092Z,385
2017-06-13T08:07:18.636Z,415
2017-06-13T08:07:59.199Z,485
2017-06-13T08:08:39.749Z,2650
2017-06-13T08:09:20.296Z,2855
2017-06-13T08:10:00.815Z,2345
2017-06-13T08:10:41.360Z,1040
2017-06-13T08:11:21.921Z,2260
2017-06-13T08:12:02.464Z,975
2017-06-13T08:12:43.014Z,345
2017-06-13T08:13:23.562Z,325
2017-06-13T08:14:04.108Z,630
2017-06-13T08:14:44.659Z,3025
2017-06-13T08:15:25.202Z,3075
2017-06-13T08:16:05.751Z,3050
2017-06-13T08:16:46.300Z,3120
2017-06-13T08:17:26.845Z,1620
2017-06-13T08:18:07.399Z,510
2017-06-13T08:18:47.955Z,370
2017-06-13T08:19:28.503Z,340
2017-06-13T08:20:09.050Z,325
2017-06-13T08:20:49.576Z,295
2017-06-13T08:21:30.120Z,265
2017-06-13T08:22:10.667Z,240
2017-06-13T08:22:51.217Z,230
2017-06-13T08:23:31.760Z,215
2017-06-13T08:24:12.308Z,210
2017-06-13T08:24:52.851Z,195
2017-06-13T08:25:33.399Z,180
2017-06-13T08:26:13.948Z,170
2017-06-13T08:26:54.501Z,170
2017-06-13T08:27:35.037Z,190
2017-06-13T08:28:15.587Z,205
2017-06-13T08:28:56.135Z,210
2017-06-13T08:29:36.691Z,225
2017-06-13T08:30:17.244Z,270
2017-06-13T08:30:57.791Z,315
2017-06-13T08:31:38.344Z,330
2017-06-13T08:32:18.887Z,340
2017-06-13T08:32:59.437Z,355
2017-06-13T08:33:39.980Z,375
2017-06-13T08:34:20.525Z,410
2017-06-13T08:35:01.074Z,420
2017-06-13T08:35:41.620Z,440
2017-06-13T08:36:22.169Z,475
2017-06-13T08:37:02.705Z,540
2017-06-13T08:37:43.257Z,875
2017-06-13T08:38:23.807Z,720
2017-06-13T08:39:04.350Z,1525
2017-06-13T08:39:44.890Z,1030
2017-06-13T08:40:25.422Z,1150
2017-06-13T08:41:05.968Z,1125
2017-06-13T08:41:46.511Z,3405
2017-06-13T08:42:27.042Z,3380
2017-06-13T08:43:07.609Z,3340
2017-06-13T08:43:48.157Z,3160
2017-06-13T08:44:28.687Z,3070
2017-06-13T08:45:09.248Z,3335
2017-06-13T08:45:49.778Z,3535
2017-06-13T08:46:30.330Z,2325
2017-06-13T08:47:10.882Z,1210
2017-06-13T08:47:51.435Z,915
2017-06-13T08:48:31.988Z,975
2017-06-13T08:49:12.536Z,635
2017-06-13T08:49:53.084Z,500
2017-06-13T08:50:33.630Z,450
2017-06-13T08:51:14.190Z,415
2017-06-13T08:51:54.742Z,380
2017-06-13T08:52:35.290Z,350
2017-06-13T08:53:15.839Z,315
2017-06-13T08:53:56.395Z,270
2017-06-13T08:54:36.971Z,235
2017-06-13T08:55:17.477Z,215
2017-06-13T08:55:58.029Z,200
2017-06-13T08:56:38.599Z,185
2017-06-13T08:57:19.147Z,175
2017-06-13T08:57:59.690Z,165
2017-06-13T08:58:40.237Z,160
2017-06-13T08:59:20.780Z,170
2017-06-13T09:00:01.333Z,190
2017-06-13T09:00:41.879Z,210
2017-06-13T09:01:22.409Z,260
2017-06-13T09:02:02.946Z,335
2017-06-13T09:02:43.494Z,405
2017-06-13T09:03:24.036Z,460
2017-06-13T09:04:04.571Z,510
2017-06-13T09:04:45.115Z,520
2017-06-13T09:05:25.663Z,525
2017-06-13T09:06:06.211Z,535
2017-06-13T09:06:46.763Z,510
2017-06-13T09:07:27.306Z,485
2017-06-13T09:08:07.843Z,455
2017-06-13T09:08:48.394Z,435
2017-06-13T09:09:28.926Z,415
2017-06-13T09:10:09.463Z,400
2017-06-13T09:10:50.004Z,395
2017-06-13T09:11:30.556Z,390
2017-06-13T09:12:11.102Z,360
2017-06-13T09:12:51.669Z,305
2017-06-13T09:13:32.217Z,285
2017-06-13T09:14:12.764Z,275
2017-06-13T09:14:53.309Z,255
2017-06-13T09:15:33.853Z,215
2017-06-13T09:16:14.468Z,200
2017-06-13T09:16:55.022Z,190
2017-06-13T09:17:35.562Z,190
2017-06-13T09:18:16.142Z,190
2017-06-13T09:18:56.676Z,200
2017-06-13T09:19:37.227Z,220
2017-06-13T09:20:17.757Z,235
2017-06-13T09:20:58.314Z,230
2017-06-13T09:21:38.842Z,210
2017-06-13T09:22:19.374Z,195
2017-06-13T09:22:59.886Z,195
2017-06-13T09:23:40.434Z,200
2017-06-13T09:24:20.982Z,210
2017-06-13T09:25:01.534Z,230
2017-06-13T09:25:42.091Z,245
2017-06-13T09:26:22.667Z,255
2017-06-13T09:27:03.207Z,285
2017-06-13T09:27:43.754Z,330
2017-06-13T09:28:24.327Z,360
2017-06-13T09:29:04.874Z,415
2017-06-13T09:29:45.417Z,455
2017-06-13T09:30:25.976Z,490
2017-06-13T09:31:06.519Z,530
2017-06-13T09:31:47.062Z,585
2017-06-13T09:32:27.613Z,645
2017-06-13T09:33:08.155Z,685
2017-06-13T09:33:48.696Z,715
2017-06-13T09:34:29.246Z,695
2017-06-13T09:35:09.775Z,710
2017-06-13T09:35:50.326Z,700
2017-06-13T09:36:30.861Z,715
2017-06-13T09:37:11.401Z,740
2017-06-13T09:37:51.939Z,780